TGPY

Maurice Bishop International Airport

Airport
ICAO code
TGPY
IATA Code
GD
Summary
ICAO Region
CARSAM
ICAO Territory
Location

Point Salines, St George's

Serving
St George's
Elevation
41 ft
Coordinates
12° 0' 15" N , 61° 47' 10" W
KCC
Metar
TGPY 201700Z 10011KT 9000 VCSH FEW014CB BKN017 BKN035 28/26 Q1015 NOSIG RMK VCSH-ALQUADS CB-SW-W

Maurice Bishop International Airport, formerly known as Point Salines International Airport, is an international airport located in the parish of St. George's. The town of St. George's is about 8.0 km north of the airport and is the capital of the island nation of Grenada.

Climatology

Tropical savannah climate (Köppen climate classification Aw)

Runways

Designator Length Width Surface Rops
10/28 2744 45 ASP Yes/Yes

Airport map

Aerial View

SKYbrary Partners:

Safety knowledge contributed by: